createdAt,value
2023-09-12T00:03:34.965Z,3.41
2023-09-12T00:08:44.251Z,3.27
2023-09-12T00:13:52.471Z,4.19
2023-09-12T00:19:00.853Z,4.17
2023-09-12T00:24:09.079Z,4.04
2023-09-12T00:29:18.051Z,4.10
2023-09-12T00:34:26.445Z,4.48
2023-09-12T00:39:35.552Z,4.25
2023-09-12T00:44:43.757Z,4.59
2023-09-12T00:49:56.404Z,4.57
2023-09-12T00:55:00.722Z,4.24
2023-09-12T01:00:10.145Z,4.83
2023-09-12T01:05:18.838Z,4.13
2023-09-12T01:10:27.026Z,4.80
2023-09-12T01:15:35.023Z,4.35
2023-09-12T01:20:43.895Z,5.63
2023-09-12T01:25:52.426Z,4.33
2023-09-12T01:31:01.353Z,4.59
2023-09-12T01:36:10.993Z,4.12
2023-09-12T01:41:19.966Z,4.11
2023-09-12T01:46:29.118Z,4.72
2023-09-12T01:51:38.416Z,4.51
2023-09-12T01:56:46.904Z,3.70
2023-09-12T02:01:55.739Z,3.94
2023-09-12T02:07:03.837Z,4.39
2023-09-12T02:12:12.196Z,3.56
2023-09-12T02:17:21.452Z,4.43
2023-09-12T02:22:30.162Z,4.02
2023-09-12T02:27:38.559Z,3.85
2023-09-12T02:32:47.634Z,3.65
2023-09-12T02:37:55.504Z,3.65
2023-09-12T02:43:04.062Z,4.68
2023-09-12T02:48:12.503Z,4.93
2023-09-12T02:53:21.084Z,3.53
2023-09-12T02:58:29.382Z,3.45
2023-09-12T03:03:38.279Z,3.72
2023-09-12T03:08:46.473Z,3.78
2023-09-12T03:13:55.028Z,3.95
2023-09-12T03:19:03.216Z,4.78
2023-09-12T03:24:11.523Z,4.77
2023-09-12T03:29:19.561Z,4.85
2023-09-12T03:34:28.173Z,4.13
2023-09-12T03:39:37.112Z,3.70
2023-09-12T03:44:45.638Z,3.93
2023-09-12T03:49:53.642Z,3.73
2023-09-12T03:55:02.338Z,3.60
2023-09-12T04:00:10.484Z,3.93
2023-09-12T04:05:19.028Z,3.97
2023-09-12T04:10:27.410Z,4.13
2023-09-12T04:15:36.245Z,3.97
2023-09-12T04:20:44.453Z,4.47
2023-09-12T04:25:52.856Z,4.76
2023-09-12T04:31:01.619Z,3.86
2023-09-12T04:36:11.723Z,4.03
2023-09-12T04:41:10.075Z,4.45
2023-09-12T04:46:18.805Z,4.25
2023-09-12T04:51:27.381Z,4.33
2023-09-12T04:56:35.684Z,4.16
2023-09-12T05:01:44.323Z,5.91
2023-09-12T05:06:53.099Z,7.89
2023-09-12T05:12:01.516Z,5.72
2023-09-12T05:17:10.410Z,9.11
2023-09-12T05:22:19.378Z,11.76
2023-09-12T05:27:27.955Z,10.26
2023-09-12T05:32:36.143Z,7.98
2023-09-12T05:37:45.263Z,5.95
2023-09-12T05:42:54.626Z,5.49
2023-09-12T05:48:03.670Z,5.33
2023-09-12T05:53:12.076Z,4.22
2023-09-12T05:58:20.965Z,5.27
2023-09-12T06:03:29.634Z,4.16
2023-09-12T06:08:38.514Z,4.28
2023-09-12T06:13:46.992Z,10.28
2023-09-12T06:18:56.315Z,4.33
2023-09-12T06:24:05.142Z,3.77
2023-09-12T06:29:14.138Z,4.24
2023-09-12T06:34:22.673Z,4.03
2023-09-12T06:39:31.908Z,3.98
2023-09-12T06:44:40.150Z,3.49
2023-09-12T06:49:54.586Z,3.33
2023-09-12T07:00:06.506Z,3.68
2023-09-12T07:05:14.799Z,3.62
2023-09-12T07:10:25.514Z,4.12
2023-09-12T07:15:31.821Z,4.66
2023-09-12T07:20:40.952Z,4.82
2023-09-12T07:25:49.425Z,4.63
2023-09-12T07:30:58.688Z,4.57
2023-09-12T07:36:06.631Z,4.82
2023-09-12T07:41:16.339Z,6.25
2023-09-12T07:46:24.536Z,5.01
2023-09-12T07:51:33.534Z,6.15
2023-09-12T07:56:41.987Z,7.98
2023-09-12T08:01:50.904Z,6.88
2023-09-12T08:06:59.582Z,6.71
2023-09-12T08:12:07.599Z,6.94
2023-09-12T08:17:15.819Z,5.77
2023-09-12T08:22:24.634Z,8.91
2023-09-12T08:27:33.785Z,8.64
2023-09-12T08:32:42.960Z,4.42
2023-09-12T08:37:52.233Z,4.04
2023-09-12T08:43:01.164Z,12.64
2023-09-12T08:48:09.516Z,4.37
2023-09-12T08:53:18.273Z,3.38
2023-09-12T08:58:27.318Z,3.91
2023-09-12T09:03:36.294Z,3.47
2023-09-12T09:08:46.017Z,3.11
2023-09-12T09:13:54.774Z,3.15
2023-09-12T09:19:02.999Z,3.39
2023-09-12T09:24:11.630Z,3.31
2023-09-12T09:29:19.949Z,3.30
2023-09-12T09:34:29.273Z,3.57
2023-09-12T09:39:37.008Z,2.67
2023-09-12T09:44:45.970Z,3.01
2023-09-12T09:49:54.453Z,2.73
2023-09-12T09:55:03.530Z,2.73
2023-09-12T10:00:11.739Z,2.97
2023-09-12T10:05:20.411Z,3.05
2023-09-12T10:10:28.622Z,3.23
2023-09-12T10:15:38.014Z,3.04
2023-09-12T10:20:47.022Z,2.83
2023-09-12T10:25:55.852Z,3.30
2023-09-12T10:31:04.233Z,4.10
2023-09-12T10:36:13.695Z,3.71
2023-09-12T10:41:22.739Z,3.99
2023-09-12T10:46:31.924Z,4.45
2023-09-12T10:51:52.830Z,4.60
2023-09-12T10:56:41.732Z,3.99
2023-09-12T11:01:50.389Z,3.47
2023-09-12T11:06:59.225Z,3.15
2023-09-12T11:12:07.719Z,3.38
2023-09-12T11:17:16.806Z,3.53
2023-09-12T11:22:25.813Z,3.23
2023-09-12T11:27:35.727Z,3.84
2023-09-12T11:32:44.571Z,3.55
2023-09-12T11:37:53.784Z,3.79
2023-09-12T11:43:02.737Z,3.58
2023-09-12T11:48:12.349Z,3.53
2023-09-12T11:53:21.091Z,3.64
2023-09-12T11:58:33.289Z,3.72
2023-09-12T12:03:31.870Z,2.85
2023-09-12T12:08:42.019Z,3.16
2023-09-12T12:13:40.436Z,2.72
2023-09-12T12:18:49.634Z,2.84
2023-09-12T12:23:58.700Z,2.63
2023-09-12T12:29:08.856Z,3.16
2023-09-12T12:35:10.057Z,3.01
2023-09-12T12:39:17.662Z,2.97
2023-09-12T12:44:16.562Z,2.76
2023-09-12T12:49:25.770Z,2.56
2023-09-12T12:54:34.963Z,2.83
2023-09-12T12:59:44.302Z,2.65
2023-09-12T13:04:53.382Z,2.56
2023-09-12T13:10:02.710Z,3.21
2023-09-12T13:15:11.362Z,2.83
2023-09-12T13:20:20.137Z,2.73
2023-09-12T13:25:28.818Z,2.60
2023-09-12T13:30:37.699Z,2.79
2023-09-12T13:35:46.096Z,2.72
2023-09-12T13:40:55.228Z,3.36
2023-09-12T13:46:04.072Z,2.68
2023-09-12T13:51:12.819Z,3.12
2023-09-12T13:56:21.315Z,2.61
2023-09-12T14:01:34.877Z,2.75
2023-09-12T14:06:38.949Z,2.72
2023-09-12T14:11:47.512Z,3.07
2023-09-12T14:16:55.287Z,3.07
2023-09-12T14:22:04.359Z,2.87
2023-09-12T14:27:22.838Z,3.32
2023-09-12T14:37:27.876Z,3.06
2023-09-12T14:52:43.885Z,3.40
2023-09-12T15:12:53.430Z,4.13
2023-09-12T15:17:49.910Z,4.84
2023-09-12T15:22:47.440Z,6.14
2023-09-12T15:27:55.732Z,4.95
2023-09-12T15:33:05.028Z,4.21
2023-09-12T15:38:25.987Z,5.36
2023-09-12T15:43:24.552Z,4.92
2023-09-12T15:48:26.660Z,5.02
2023-09-12T15:53:37.796Z,4.65
2023-09-12T15:58:44.635Z,5.10
2023-09-12T16:03:32.549Z,5.34
2023-09-12T16:08:40.949Z,5.32
2023-09-12T16:13:51.629Z,4.92
2023-09-12T16:18:58.295Z,4.63
2023-09-12T16:24:07.179Z,4.40
2023-09-12T16:29:15.442Z,4.88
2023-09-12T16:34:25.398Z,6.66
2023-09-12T16:39:33.947Z,5.92
2023-09-12T16:44:42.310Z,5.50
2023-09-12T16:49:50.793Z,4.90
2023-09-12T16:54:59.637Z,5.73
2023-09-12T17:00:07.805Z,5.96
2023-09-12T17:05:16.137Z,6.09
2023-09-12T17:10:25.117Z,9.55
2023-09-12T17:15:34.392Z,16.64
2023-09-12T17:20:42.916Z,9.89
2023-09-12T17:25:51.367Z,9.10
2023-09-12T17:30:59.487Z,7.56
2023-09-12T17:36:08.140Z,7.73
2023-09-12T17:41:16.346Z,7.71
2023-09-12T17:46:25.410Z,9.13
2023-09-12T17:51:33.684Z,9.91
2023-09-12T18:22:26.022Z,8.15
2023-09-12T18:27:35.150Z,9.49
2023-09-12T18:37:54.044Z,8.80
2023-09-12T18:43:01.408Z,8.64
2023-09-12T18:48:10.045Z,9.13
2023-09-12T18:53:18.133Z,8.46
2023-09-12T18:58:26.965Z,8.13
2023-09-12T19:03:35.802Z,8.34
2023-09-12T19:08:43.439Z,8.77
2023-09-12T19:13:52.083Z,8.39
2023-09-12T19:19:00.699Z,8.44
2023-09-12T19:24:09.058Z,7.95
2023-09-12T19:29:17.752Z,8.02
2023-09-12T19:34:26.454Z,8.45
2023-09-12T19:39:38.124Z,7.26
2023-09-12T19:44:36.456Z,7.05
2023-09-12T19:49:45.614Z,6.03
2023-09-12T19:54:53.998Z,7.00
2023-09-12T20:00:02.640Z,6.23
2023-09-12T20:05:11.025Z,5.79
2023-09-12T20:10:20.290Z,5.93
2023-09-12T20:15:28.119Z,5.83
2023-09-12T20:20:37.097Z,5.83
2023-09-12T20:25:45.376Z,5.76
2023-09-12T20:30:54.112Z,5.68
2023-09-12T20:36:02.345Z,5.09
2023-09-12T20:41:11.042Z,4.83
2023-09-12T20:46:20.101Z,4.97
2023-09-12T20:51:28.421Z,4.54
2023-09-12T20:56:36.704Z,4.37
2023-09-12T21:01:45.619Z,4.28
2023-09-12T21:06:53.641Z,4.56
2023-09-12T21:12:01.896Z,4.19
2023-09-12T21:17:10.181Z,5.02
2023-09-12T21:22:18.596Z,4.44
2023-09-12T21:27:27.226Z,5.00
2023-09-12T21:32:35.897Z,4.59
2023-09-12T21:37:44.057Z,4.40
2023-09-12T21:42:53.504Z,4.15
2023-09-12T21:48:01.759Z,4.49
2023-09-12T21:53:10.412Z,4.21
2023-09-12T21:58:18.782Z,5.46
2023-09-12T22:03:27.577Z,4.49
2023-09-12T22:08:35.814Z,5.00
2023-09-12T22:13:44.597Z,4.91
2023-09-12T22:18:53.372Z,4.28
2023-09-12T22:24:02.225Z,4.86
2023-09-12T22:29:10.683Z,4.75
2023-09-12T22:34:19.386Z,4.46
2023-09-12T22:39:27.480Z,4.17
2023-09-12T22:44:37.009Z,4.15
2023-09-12T22:49:45.231Z,4.06
2023-09-12T22:54:54.314Z,4.03
2023-09-12T23:00:02.955Z,4.45
2023-09-12T23:05:11.669Z,3.73
2023-09-12T23:10:20.390Z,4.00
2023-09-12T23:15:28.965Z,3.95
2023-09-12T23:20:37.259Z,4.72
2023-09-12T23:25:45.805Z,3.88
2023-09-12T23:30:54.914Z,3.81
2023-09-12T23:36:03.498Z,3.93
2023-09-12T23:41:11.774Z,3.54
2023-09-12T23:46:20.540Z,4.27
2023-09-12T23:51:28.210Z,3.99
2023-09-12T23:56:36.808Z,4.46
